KHOT/HOT METAR and TAF weather

Enter ICAO airport designator
Station Type Date Time Source
KHOT METAR 2020/01/20 18:53 UTC NOAA

KHOT 201853Z AUTO 18004KT 10SM CLR 05/M09 A3056 RMK AO2 SLP351 T00501089


Station Type Date Time Source
KHOT Decoded METAR 2020/01/20 18:53 UTC NOAA

HOT SPRINGS MEMORIAL FIELD, AR, United States (KHOT) 34-29N 093-06W 162M
Jan 20, 2020 - 01:53 PM EST / 2020.01.20 1853 UTC
Wind: from the S (180 degrees) at 5 MPH (4 KT):0
Visibility: 10 mile(s):0
Sky conditions: clear
Temperature: 41.0 F (5.0 C)
Dew Point: 16.0 F (-8.9 C)
Relative Humidity: 35%
Pressure (altimeter): 30.56 in. Hg (1034 hPa)
ob: KHOT 201853Z AUTO 18004KT 10SM CLR 05/M09 A3056 RMK AO2 SLP351 T00501089
cycle: 19

Station Type Date Time Source
KHOT TAF 2020/01/20 18:22 UTC NOAA

TAF KHOT 201720Z 2018/2118 04005KT P6SM SKC
FM211200 09007KT P6SM SKC

Example: see airport list